sensor_id;sensor_type;location;lat;lon;timestamp;P1;durP1;ratioP1;P2;durP2;ratioP2
32814;SDS011;19165;48.182;16.374;2022-08-20T00:01:01;4.18;;;3.72;;
32814;SDS011;19165;48.182;16.374;2022-08-20T00:03:29;5.70;;;3.85;;
32814;SDS011;19165;48.182;16.374;2022-08-20T00:05:57;4.10;;;3.70;;
32814;SDS011;19165;48.182;16.374;2022-08-20T00:08:25;4.10;;;3.70;;
32814;SDS011;19165;48.182;16.374;2022-08-20T00:10:52;5.15;;;3.92;;
32814;SDS011;19165;48.182;16.374;2022-08-20T00:13:19;4.05;;;3.60;;
32814;SDS011;19165;48.182;16.374;2022-08-20T00:15:51;5.20;;;3.60;;
32814;SDS011;19165;48.182;16.374;2022-08-20T00:18:19;5.47;;;3.30;;
32814;SDS011;19165;48.182;16.374;2022-08-20T00:20:46;6.00;;;3.63;;
32814;SDS011;19165;48.182;16.374;2022-08-20T00:23:16;4.85;;;3.75;;
32814;SDS011;19165;48.182;16.374;2022-08-20T00:25:43;4.68;;;3.67;;
32814;SDS011;19165;48.182;16.374;2022-08-20T00:28:10;3.47;;;3.08;;
32814;SDS011;19165;48.182;16.374;2022-08-20T00:30:37;4.10;;;3.70;;
32814;SDS011;19165;48.182;16.374;2022-08-20T00:33:06;4.65;;;3.50;;
32814;SDS011;19165;48.182;16.374;2022-08-20T00:35:41;4.72;;;3.50;;
32814;SDS011;19165;48.182;16.374;2022-08-20T00:38:09;4.38;;;3.55;;
32814;SDS011;19165;48.182;16.374;2022-08-20T00:40:36;4.82;;;3.72;;
32814;SDS011;19165;48.182;16.374;2022-08-20T00:43:05;3.95;;;3.45;;
32814;SDS011;19165;48.182;16.374;2022-08-20T00:45:33;3.75;;;3.40;;
32814;SDS011;19165;48.182;16.374;2022-08-20T00:48:00;3.40;;;3.10;;
32814;SDS011;19165;48.182;16.374;2022-08-20T00:50:28;3.92;;;3.53;;
32814;SDS011;19165;48.182;16.374;2022-08-20T00:53:01;3.70;;;3.20;;
32814;SDS011;19165;48.182;16.374;2022-08-20T00:55:30;3.95;;;3.25;;
32814;SDS011;19165;48.182;16.374;2022-08-20T00:57:59;4.13;;;3.30;;
32814;SDS011;19165;48.182;16.374;2022-08-20T01:00:30;3.72;;;2.78;;
32814;SDS011;19165;48.182;16.374;2022-08-20T01:02:59;3.40;;;2.95;;
32814;SDS011;19165;48.182;16.374;2022-08-20T01:05:25;4.10;;;2.95;;
32814;SDS011;19165;48.182;16.374;2022-08-20T01:07:52;3.45;;;3.15;;
32814;SDS011;19165;48.182;16.374;2022-08-20T01:10:21;3.97;;;2.97;;
32814;SDS011;19165;48.182;16.374;2022-08-20T01:12:50;4.90;;;2.78;;
32814;SDS011;19165;48.182;16.374;2022-08-20T01:15:20;3.00;;;2.70;;
32814;SDS011;19165;48.182;16.374;2022-08-20T01:17:49;4.18;;;3.20;;
32814;SDS011;19165;48.182;16.374;2022-08-20T01:20:18;4.57;;;3.25;;
32814;SDS011;19165;48.182;16.374;2022-08-20T01:22:49;5.00;;;2.72;;
32814;SDS011;19165;48.182;16.374;2022-08-20T01:25:41;3.88;;;2.92;;
32814;SDS011;19165;48.182;16.374;2022-08-20T01:28:11;3.33;;;3.03;;
32814;SDS011;19165;48.182;16.374;2022-08-20T01:30:39;2.88;;;2.50;;
32814;SDS011;19165;48.182;16.374;2022-08-20T01:33:06;5.43;;;2.92;;
32814;SDS011;19165;48.182;16.374;2022-08-20T01:35:34;3.03;;;2.42;;
32814;SDS011;19165;48.182;16.374;2022-08-20T01:38:02;2.60;;;2.40;;
32814;SDS011;19165;48.182;16.374;2022-08-20T01:40:34;3.05;;;2.47;;
32814;SDS011;19165;48.182;16.374;2022-08-20T01:43:15;2.97;;;2.50;;
32814;SDS011;19165;48.182;16.374;2022-08-20T01:45:41;2.58;;;2.20;;
32814;SDS011;19165;48.182;16.374;2022-08-20T01:48:08;5.15;;;2.28;;
32814;SDS011;19165;48.182;16.374;2022-08-20T01:50:34;2.58;;;2.38;;
32814;SDS011;19165;48.182;16.374;2022-08-20T01:53:05;3.35;;;2.00;;
32814;SDS011;19165;48.182;16.374;2022-08-20T01:55:37;2.38;;;2.17;;
32814;SDS011;19165;48.182;16.374;2022-08-20T01:58:04;1.98;;;1.70;;
32814;SDS011;19165;48.182;16.374;2022-08-20T02:00:30;2.78;;;1.88;;
32814;SDS011;19165;48.182;16.374;2022-08-20T02:02:59;2.05;;;1.95;;
32814;SDS011;19165;48.182;16.374;2022-08-20T02:05:25;3.10;;;1.80;;
32814;SDS011;19165;48.182;16.374;2022-08-20T02:07:51;2.67;;;1.92;;
32814;SDS011;19165;48.182;16.374;2022-08-20T02:10:17;1.90;;;1.80;;
32814;SDS011;19165;48.182;16.374;2022-08-20T02:12:43;1.58;;;1.40;;
32814;SDS011;19165;48.182;16.374;2022-08-20T02:15:10;2.40;;;1.85;;
32814;SDS011;19165;48.182;16.374;2022-08-20T02:17:37;3.33;;;1.70;;
32814;SDS011;19165;48.182;16.374;2022-08-20T02:20:05;1.63;;;1.48;;
32814;SDS011;19165;48.182;16.374;2022-08-20T02:22:34;1.90;;;1.80;;
32814;SDS011;19165;48.182;16.374;2022-08-20T02:25:02;1.42;;;1.33;;
32814;SDS011;19165;48.182;16.374;2022-08-20T02:27:30;1.42;;;1.33;;
32814;SDS011;19165;48.182;16.374;2022-08-20T02:30:00;1.60;;;1.50;;
32814;SDS011;19165;48.182;16.374;2022-08-20T02:32:29;1.90;;;1.50;;
32814;SDS011;19165;48.182;16.374;2022-08-20T02:34:54;2.55;;;1.67;;
32814;SDS011;19165;48.182;16.374;2022-08-20T02:37:20;1.63;;;1.35;;
32814;SDS011;19165;48.182;16.374;2022-08-20T02:39:46;1.38;;;1.27;;
32814;SDS011;19165;48.182;16.374;2022-08-20T02:42:12;1.45;;;1.20;;
32814;SDS011;19165;48.182;16.374;2022-08-20T02:44:38;4.45;;;1.50;;
32814;SDS011;19165;48.182;16.374;2022-08-20T02:47:05;1.23;;;1.20;;
32814;SDS011;19165;48.182;16.374;2022-08-20T02:49:32;1.88;;;1.55;;
32814;SDS011;19165;48.182;16.374;2022-08-20T02:51:59;1.67;;;1.33;;
32814;SDS011;19165;48.182;16.374;2022-08-20T02:54:25;1.25;;;1.15;;
32814;SDS011;19165;48.182;16.374;2022-08-20T02:56:51;1.40;;;1.30;;
32814;SDS011;19165;48.182;16.374;2022-08-20T02:59:17;2.55;;;1.20;;
32814;SDS011;19165;48.182;16.374;2022-08-20T03:01:43;2.92;;;1.45;;
32814;SDS011;19165;48.182;16.374;2022-08-20T03:04:09;1.73;;;1.20;;
32814;SDS011;19165;48.182;16.374;2022-08-20T03:06:36;5.07;;;1.30;;
32814;SDS011;19165;48.182;16.374;2022-08-20T03:09:02;1.20;;;1.10;;
32814;SDS011;19165;48.182;16.374;2022-08-20T03:11:30;1.30;;;1.20;;
32814;SDS011;19165;48.182;16.374;2022-08-20T03:13:57;1.23;;;1.13;;
32814;SDS011;19165;48.182;16.374;2022-08-20T03:16:23;5.97;;;1.30;;
32814;SDS011;19165;48.182;16.374;2022-08-20T03:18:49;0.90;;;0.90;;
32814;SDS011;19165;48.182;16.374;2022-08-20T03:21:14;1.75;;;1.25;;
32814;SDS011;19165;48.182;16.374;2022-08-20T03:23:44;1.10;;;1.10;;
32814;SDS011;19165;48.182;16.374;2022-08-20T03:26:11;1.42;;;1.33;;
32814;SDS011;19165;48.182;16.374;2022-08-20T03:28:38;1.45;;;1.35;;
32814;SDS011;19165;48.182;16.374;2022-08-20T03:31:04;1.30;;;1.20;;
32814;SDS011;19165;48.182;16.374;2022-08-20T03:33:31;1.63;;;1.50;;
32814;SDS011;19165;48.182;16.374;2022-08-20T03:35:57;1.50;;;1.40;;
32814;SDS011;19165;48.182;16.374;2022-08-20T03:38:23;1.33;;;1.23;;
32814;SDS011;19165;48.182;16.374;2022-08-20T03:40:51;3.90;;;1.38;;
32814;SDS011;19165;48.182;16.374;2022-08-20T03:43:17;1.63;;;1.40;;
32814;SDS011;19165;48.182;16.374;2022-08-20T03:45:43;1.42;;;1.10;;
32814;SDS011;19165;48.182;16.374;2022-08-20T03:48:12;2.17;;;1.40;;
32814;SDS011;19165;48.182;16.374;2022-08-20T03:50:39;1.23;;;1.10;;
32814;SDS011;19165;48.182;16.374;2022-08-20T03:53:06;1.23;;;1.13;;
32814;SDS011;19165;48.182;16.374;2022-08-20T03:55:32;1.42;;;1.10;;
32814;SDS011;19165;48.182;16.374;2022-08-20T03:58:02;1.23;;;1.13;;
32814;SDS011;19165;48.182;16.374;2022-08-20T04:00:31;3.00;;;1.30;;
32814;SDS011;19165;48.182;16.374;2022-08-20T04:02:58;2.47;;;1.20;;
32814;SDS011;19165;48.182;16.374;2022-08-20T04:05:25;1.45;;;1.05;;
32814;SDS011;19165;48.182;16.374;2022-08-20T04:07:52;1.58;;;1.20;;
32814;SDS011;19165;48.182;16.374;2022-08-20T04:10:18;1.08;;;0.98;;
32814;SDS011;19165;48.182;16.374;2022-08-20T04:12:44;1.10;;;0.93;;
32814;SDS011;19165;48.182;16.374;2022-08-20T04:15:13;1.63;;;1.00;;
32814;SDS011;19165;48.182;16.374;2022-08-20T04:17:41;0.90;;;0.90;;
32814;SDS011;19165;48.182;16.374;2022-08-20T04:20:10;1.50;;;1.10;;
32814;SDS011;19165;48.182;16.374;2022-08-20T04:22:38;1.35;;;1.00;;
32814;SDS011;19165;48.182;16.374;2022-08-20T04:25:05;1.30;;;1.20;;
32814;SDS011;19165;48.182;16.374;2022-08-20T04:27:35;2.88;;;1.10;;
32814;SDS011;19165;48.182;16.374;2022-08-20T04:30:02;1.20;;;1.10;;
32814;SDS011;19165;48.182;16.374;2022-08-20T04:32:31;3.03;;;1.08;;
32814;SDS011;19165;48.182;16.374;2022-08-20T04:35:00;2.63;;;1.10;;
32814;SDS011;19165;48.182;16.374;2022-08-20T04:37:26;1.10;;;1.02;;
32814;SDS011;19165;48.182;16.374;2022-08-20T04:39:52;2.60;;;1.10;;
32814;SDS011;19165;48.182;16.374;2022-08-20T04:42:37;2.63;;;1.13;;
32814;SDS011;19165;48.182;16.374;2022-08-20T04:45:03;1.20;;;1.10;;
32814;SDS011;19165;48.182;16.374;2022-08-20T04:47:31;2.47;;;1.20;;
32814;SDS011;19165;48.182;16.374;2022-08-20T04:49:57;7.63;;;1.38;;
32814;SDS011;19165;48.182;16.374;2022-08-20T04:52:27;1.35;;;1.10;;
32814;SDS011;19165;48.182;16.374;2022-08-20T04:54:53;1.08;;;1.00;;
32814;SDS011;19165;48.182;16.374;2022-08-20T04:57:20;2.85;;;1.00;;
32814;SDS011;19165;48.182;16.374;2022-08-20T04:59:48;1.70;;;1.10;;
32814;SDS011;19165;48.182;16.374;2022-08-20T05:02:14;3.58;;;1.30;;
32814;SDS011;19165;48.182;16.374;2022-08-20T05:04:43;1.23;;;1.13;;
32814;SDS011;19165;48.182;16.374;2022-08-20T05:07:10;1.42;;;1.10;;
32814;SDS011;19165;48.182;16.374;2022-08-20T05:09:37;1.63;;;1.13;;
32814;SDS011;19165;48.182;16.374;2022-08-20T05:12:03;2.53;;;1.10;;
32814;SDS011;19165;48.182;16.374;2022-08-20T05:14:30;1.00;;;1.00;;
32814;SDS011;19165;48.182;16.374;2022-08-20T05:16:55;1.35;;;1.05;;
32814;SDS011;19165;48.182;16.374;2022-08-20T05:19:22;1.30;;;1.20;;
32814;SDS011;19165;48.182;16.374;2022-08-20T05:21:49;1.05;;;1.05;;
32814;SDS011;19165;48.182;16.374;2022-08-20T05:24:17;2.17;;;1.10;;
32814;SDS011;19165;48.182;16.374;2022-08-20T05:26:45;1.13;;;1.02;;
32814;SDS011;19165;48.182;16.374;2022-08-20T05:29:11;0.93;;;0.93;;
32814;SDS011;19165;48.182;16.374;2022-08-20T05:31:37;1.48;;;1.20;;
32814;SDS011;19165;48.182;16.374;2022-08-20T05:34:04;1.13;;;1.00;;
32814;SDS011;19165;48.182;16.374;2022-08-20T05:36:33;1.50;;;0.90;;
32814;SDS011;19165;48.182;16.374;2022-08-20T05:39:01;1.17;;;0.90;;
32814;SDS011;19165;48.182;16.374;2022-08-20T05:41:27;1.25;;;1.02;;
32814;SDS011;19165;48.182;16.374;2022-08-20T05:43:54;1.25;;;1.05;;
32814;SDS011;19165;48.182;16.374;2022-08-20T05:46:20;0.88;;;0.88;;
32814;SDS011;19165;48.182;16.374;2022-08-20T05:48:47;1.45;;;0.85;;
32814;SDS011;19165;48.182;16.374;2022-08-20T05:51:12;1.08;;;0.88;;
32814;SDS011;19165;48.182;16.374;2022-08-20T05:53:39;2.03;;;1.08;;
32814;SDS011;19165;48.182;16.374;2022-08-20T05:56:13;0.90;;;0.90;;
32814;SDS011;19165;48.182;16.374;2022-08-20T05:58:39;1.98;;;0.93;;
32814;SDS011;19165;48.182;16.374;2022-08-20T06:01:05;3.20;;;0.80;;
32814;SDS011;19165;48.182;16.374;2022-08-20T06:03:31;2.15;;;0.75;;
32814;SDS011;19165;48.182;16.374;2022-08-20T06:06:15;0.70;;;0.65;;
32814;SDS011;19165;48.182;16.374;2022-08-20T06:08:41;4.90;;;0.63;;
32814;SDS011;19165;48.182;16.374;2022-08-20T06:11:07;0.88;;;0.70;;
32814;SDS011;19165;48.182;16.374;2022-08-20T06:13:34;1.13;;;0.70;;
32814;SDS011;19165;48.182;16.374;2022-08-20T06:16:00;0.70;;;0.65;;
32814;SDS011;19165;48.182;16.374;2022-08-20T06:18:26;1.05;;;0.70;;
32814;SDS011;19165;48.182;16.374;2022-08-20T06:20:52;1.75;;;0.70;;
32814;SDS011;19165;48.182;16.374;2022-08-20T06:23:19;1.35;;;0.70;;
32814;SDS011;19165;48.182;16.374;2022-08-20T06:25:45;2.63;;;0.80;;
32814;SDS011;19165;48.182;16.374;2022-08-20T06:28:14;1.02;;;0.60;;
32814;SDS011;19165;48.182;16.374;2022-08-20T06:30:41;1.67;;;0.85;;
32814;SDS011;19165;48.182;16.374;2022-08-20T06:33:07;1.98;;;0.90;;
32814;SDS011;19165;48.182;16.374;2022-08-20T06:35:33;1.63;;;0.73;;
32814;SDS011;19165;48.182;16.374;2022-08-20T06:38:02;0.68;;;0.60;;
32814;SDS011;19165;48.182;16.374;2022-08-20T06:40:30;1.38;;;0.75;;
32814;SDS011;19165;48.182;16.374;2022-08-20T06:42:58;3.00;;;0.90;;
32814;SDS011;19165;48.182;16.374;2022-08-20T06:45:26;3.50;;;0.82;;
32814;SDS011;19165;48.182;16.374;2022-08-20T06:47:55;1.30;;;0.70;;
32814;SDS011;19165;48.182;16.374;2022-08-20T06:50:25;1.52;;;0.80;;
32814;SDS011;19165;48.182;16.374;2022-08-20T06:52:53;4.25;;;0.90;;
32814;SDS011;19165;48.182;16.374;2022-08-20T06:55:20;0.85;;;0.63;;
32814;SDS011;19165;48.182;16.374;2022-08-20T06:57:46;2.05;;;0.70;;
32814;SDS011;19165;48.182;16.374;2022-08-20T07:00:19;2.72;;;0.70;;
32814;SDS011;19165;48.182;16.374;2022-08-20T07:02:45;2.58;;;0.70;;
32814;SDS011;19165;48.182;16.374;2022-08-20T07:05:13;3.08;;;0.77;;
32814;SDS011;19165;48.182;16.374;2022-08-20T07:07:43;4.60;;;0.85;;
32814;SDS011;19165;48.182;16.374;2022-08-20T07:10:11;5.45;;;0.80;;
32814;SDS011;19165;48.182;16.374;2022-08-20T07:12:38;1.25;;;0.80;;
32814;SDS011;19165;48.182;16.374;2022-08-20T07:15:04;2.70;;;0.77;;
32814;SDS011;19165;48.182;16.374;2022-08-20T07:17:32;1.00;;;0.80;;
32814;SDS011;19165;48.182;16.374;2022-08-20T07:20:01;2.67;;;0.90;;
32814;SDS011;19165;48.182;16.374;2022-08-20T07:22:30;1.02;;;0.93;;
32814;SDS011;19165;48.182;16.374;2022-08-20T07:24:56;1.42;;;0.85;;
32814;SDS011;19165;48.182;16.374;2022-08-20T07:27:22;0.75;;;0.65;;
32814;SDS011;19165;48.182;16.374;2022-08-20T07:29:50;3.30;;;0.70;;
32814;SDS011;19165;48.182;16.374;2022-08-20T07:32:34;1.50;;;0.80;;
32814;SDS011;19165;48.182;16.374;2022-08-20T07:35:04;0.90;;;0.80;;
32814;SDS011;19165;48.182;16.374;2022-08-20T07:37:37;1.05;;;0.65;;
32814;SDS011;19165;48.182;16.374;2022-08-20T07:40:04;3.55;;;1.08;;
32814;SDS011;19165;48.182;16.374;2022-08-20T07:42:31;0.73;;;0.70;;
32814;SDS011;19165;48.182;16.374;2022-08-20T07:44:57;0.60;;;0.60;;
32814;SDS011;19165;48.182;16.374;2022-08-20T07:47:23;0.60;;;0.60;;
32814;SDS011;19165;48.182;16.374;2022-08-20T07:49:49;3.13;;;0.70;;
32814;SDS011;19165;48.182;16.374;2022-08-20T07:52:15;1.58;;;0.65;;
32814;SDS011;19165;48.182;16.374;2022-08-20T07:54:46;3.35;;;0.98;;
32814;SDS011;19165;48.182;16.374;2022-08-20T07:57:12;0.88;;;0.50;;
32814;SDS011;19165;48.182;16.374;2022-08-20T07:59:38;0.77;;;0.50;;
32814;SDS011;19165;48.182;16.374;2022-08-20T08:02:04;1.05;;;0.60;;
32814;SDS011;19165;48.182;16.374;2022-08-20T08:04:30;2.90;;;0.60;;
32814;SDS011;19165;48.182;16.374;2022-08-20T08:06:56;0.77;;;0.60;;
32814;SDS011;19165;48.182;16.374;2022-08-20T08:09:24;5.15;;;0.77;;
32814;SDS011;19165;48.182;16.374;2022-08-20T08:11:58;1.35;;;0.70;;
32814;SDS011;19165;48.182;16.374;2022-08-20T08:14:27;1.05;;;0.40;;
32814;SDS011;19165;48.182;16.374;2022-08-20T08:16:57;1.85;;;0.60;;
32814;SDS011;19165;48.182;16.374;2022-08-20T08:19:27;0.82;;;0.50;;
32814;SDS011;19165;48.182;16.374;2022-08-20T08:22:01;1.60;;;0.40;;
32814;SDS011;19165;48.182;16.374;2022-08-20T08:24:28;1.42;;;0.40;;
32814;SDS011;19165;48.182;16.374;2022-08-20T08:26:54;1.95;;;0.55;;
32814;SDS011;19165;48.182;16.374;2022-08-20T08:29:21;0.90;;;0.40;;
32814;SDS011;19165;48.182;16.374;2022-08-20T08:31:47;1.27;;;0.70;;
32814;SDS011;19165;48.182;16.374;2022-08-20T08:34:13;2.03;;;0.60;;
32814;SDS011;19165;48.182;16.374;2022-08-20T08:36:39;1.20;;;0.63;;
32814;SDS011;19165;48.182;16.374;2022-08-20T08:39:07;0.80;;;0.40;;
32814;SDS011;19165;48.182;16.374;2022-08-20T08:41:34;0.68;;;0.40;;
32814;SDS011;19165;48.182;16.374;2022-08-20T08:44:03;1.55;;;0.50;;
32814;SDS011;19165;48.182;16.374;2022-08-20T08:46:34;0.63;;;0.43;;
32814;SDS011;19165;48.182;16.374;2022-08-20T08:49:04;0.75;;;0.30;;
32814;SDS011;19165;48.182;16.374;2022-08-20T08:51:32;1.85;;;0.40;;
32814;SDS011;19165;48.182;16.374;2022-08-20T08:54:02;1.10;;;0.60;;
32814;SDS011;19165;48.182;16.374;2022-08-20T08:56:29;2.20;;;0.70;;
32814;SDS011;19165;48.182;16.374;2022-08-20T08:58:57;0.85;;;0.60;;
32814;SDS011;19165;48.182;16.374;2022-08-20T09:01:26;0.75;;;0.60;;
32814;SDS011;19165;48.182;16.374;2022-08-20T09:03:54;0.95;;;0.80;;
32814;SDS011;19165;48.182;16.374;2022-08-20T09:06:22;0.50;;;0.50;;
32814;SDS011;19165;48.182;16.374;2022-08-20T09:08:50;1.42;;;0.70;;
32814;SDS011;19165;48.182;16.374;2022-08-20T09:11:19;1.10;;;0.70;;
32814;SDS011;19165;48.182;16.374;2022-08-20T09:13:46;2.33;;;0.55;;
32814;SDS011;19165;48.182;16.374;2022-08-20T09:16:12;1.08;;;0.70;;
32814;SDS011;19165;48.182;16.374;2022-08-20T09:18:39;3.40;;;0.98;;
32814;SDS011;19165;48.182;16.374;2022-08-20T09:21:07;5.63;;;0.85;;
32814;SDS011;19165;48.182;16.374;2022-08-20T09:23:33;0.70;;;0.70;;
32814;SDS011;19165;48.182;16.374;2022-08-20T09:26:00;0.68;;;0.60;;
32814;SDS011;19165;48.182;16.374;2022-08-20T09:28:26;0.60;;;0.60;;
32814;SDS011;19165;48.182;16.374;2022-08-20T09:30:52;0.77;;;0.70;;
32814;SDS011;19165;48.182;16.374;2022-08-20T09:33:18;1.35;;;0.70;;
32814;SDS011;19165;48.182;16.374;2022-08-20T09:35:44;1.15;;;0.80;;
32814;SDS011;19165;48.182;16.374;2022-08-20T09:38:12;2.25;;;1.00;;
32814;SDS011;19165;48.182;16.374;2022-08-20T09:40:38;3.35;;;1.00;;
32814;SDS011;19165;48.182;16.374;2022-08-20T09:43:05;2.25;;;1.00;;
32814;SDS011;19165;48.182;16.374;2022-08-20T09:45:31;0.80;;;0.80;;
32814;SDS011;19165;48.182;16.374;2022-08-20T09:47:57;2.33;;;1.10;;
32814;SDS011;19165;48.182;16.374;2022-08-20T09:50:24;1.63;;;1.05;;
32814;SDS011;19165;48.182;16.374;2022-08-20T09:52:51;1.60;;;1.02;;
32814;SDS011;19165;48.182;16.374;2022-08-20T09:55:21;1.33;;;0.90;;
32814;SDS011;19165;48.182;16.374;2022-08-20T09:57:52;0.70;;;0.70;;
32814;SDS011;19165;48.182;16.374;2022-08-20T10:00:18;2.45;;;1.10;;
32814;SDS011;19165;48.182;16.374;2022-08-20T10:02:45;1.58;;;1.20;;
32814;SDS011;19165;48.182;16.374;2022-08-20T10:05:11;1.10;;;1.10;;
32814;SDS011;19165;48.182;16.374;2022-08-20T10:07:37;0.70;;;0.70;;
32814;SDS011;19165;48.182;16.374;2022-08-20T10:10:05;0.77;;;0.77;;
32814;SDS011;19165;48.182;16.374;2022-08-20T10:12:34;1.00;;;0.90;;
32814;SDS011;19165;48.182;16.374;2022-08-20T10:15:00;1.25;;;1.20;;
32814;SDS011;19165;48.182;16.374;2022-08-20T10:17:26;2.50;;;1.10;;
32814;SDS011;19165;48.182;16.374;2022-08-20T10:19:52;2.42;;;0.98;;
32814;SDS011;19165;48.182;16.374;2022-08-20T10:22:17;2.85;;;1.10;;
32814;SDS011;19165;48.182;16.374;2022-08-20T10:24:43;0.90;;;0.90;;
32814;SDS011;19165;48.182;16.374;2022-08-20T10:27:09;1.05;;;0.90;;
32814;SDS011;19165;48.182;16.374;2022-08-20T10:29:37;2.25;;;1.20;;
32814;SDS011;19165;48.182;16.374;2022-08-20T10:32:09;1.67;;;1.00;;
32814;SDS011;19165;48.182;16.374;2022-08-20T10:34:37;1.30;;;1.20;;
32814;SDS011;19165;48.182;16.374;2022-08-20T10:37:04;1.17;;;1.08;;
32814;SDS011;19165;48.182;16.374;2022-08-20T10:39:30;0.95;;;0.90;;
32814;SDS011;19165;48.182;16.374;2022-08-20T10:41:56;0.95;;;0.80;;
32814;SDS011;19165;48.182;16.374;2022-08-20T10:44:22;0.95;;;0.93;;
32814;SDS011;19165;48.182;16.374;2022-08-20T10:46:49;1.20;;;0.80;;
32814;SDS011;19165;48.182;16.374;2022-08-20T10:49:15;0.93;;;0.88;;
32814;SDS011;19165;48.182;16.374;2022-08-20T10:51:41;1.20;;;1.02;;
32814;SDS011;19165;48.182;16.374;2022-08-20T10:54:07;0.68;;;0.68;;
32814;SDS011;19165;48.182;16.374;2022-08-20T10:56:33;1.08;;;0.90;;
32814;SDS011;19165;48.182;16.374;2022-08-20T10:58:59;0.98;;;0.80;;
32814;SDS011;19165;48.182;16.374;2022-08-20T11:01:25;1.60;;;1.00;;
32814;SDS011;19165;48.182;16.374;2022-08-20T11:03:52;1.20;;;1.05;;
32814;SDS011;19165;48.182;16.374;2022-08-20T11:06:18;1.10;;;1.10;;
32814;SDS011;19165;48.182;16.374;2022-08-20T11:08:44;1.33;;;1.17;;
32814;SDS011;19165;48.182;16.374;2022-08-20T11:11:10;1.20;;;1.10;;
32814;SDS011;19165;48.182;16.374;2022-08-20T11:13:36;1.52;;;1.30;;
32814;SDS011;19165;48.182;16.374;2022-08-20T11:16:02;1.08;;;1.08;;
32814;SDS011;19165;48.182;16.374;2022-08-20T11:18:29;1.63;;;1.38;;
32814;SDS011;19165;48.182;16.374;2022-08-20T11:20:57;2.35;;;1.60;;
32814;SDS011;19165;48.182;16.374;2022-08-20T11:23:23;3.28;;;2.60;;
32814;SDS011;19165;48.182;16.374;2022-08-20T11:25:50;2.47;;;1.50;;
32814;SDS011;19165;48.182;16.374;2022-08-20T11:28:16;2.58;;;2.38;;
32814;SDS011;19165;48.182;16.374;2022-08-20T11:30:42;1.65;;;1.55;;
32814;SDS011;19165;48.182;16.374;2022-08-20T11:33:08;2.60;;;1.70;;
32814;SDS011;19165;48.182;16.374;2022-08-20T11:35:35;3.95;;;1.40;;
32814;SDS011;19165;48.182;16.374;2022-08-20T11:38:02;2.90;;;1.50;;
32814;SDS011;19165;48.182;16.374;2022-08-20T11:40:28;3.83;;;1.30;;
32814;SDS011;19165;48.182;16.374;2022-08-20T11:42:55;1.85;;;1.50;;
32814;SDS011;19165;48.182;16.374;2022-08-20T11:45:21;3.42;;;1.70;;
32814;SDS011;19165;48.182;16.374;2022-08-20T11:47:47;2.25;;;2.00;;
32814;SDS011;19165;48.182;16.374;2022-08-20T11:50:14;2.65;;;1.60;;
32814;SDS011;19165;48.182;16.374;2022-08-20T11:52:41;1.77;;;1.67;;
32814;SDS011;19165;48.182;16.374;2022-08-20T11:55:12;2.67;;;1.70;;
32814;SDS011;19165;48.182;16.374;2022-08-20T11:57:40;2.03;;;1.80;;
32814;SDS011;19165;48.182;16.374;2022-08-20T12:00:08;2.05;;;1.80;;
32814;SDS011;19165;48.182;16.374;2022-08-20T12:02:37;2.38;;;2.05;;
32814;SDS011;19165;48.182;16.374;2022-08-20T12:05:04;1.65;;;1.55;;
32814;SDS011;19165;48.182;16.374;2022-08-20T12:07:31;1.83;;;1.73;;
32814;SDS011;19165;48.182;16.374;2022-08-20T12:09:57;2.05;;;1.85;;
32814;SDS011;19165;48.182;16.374;2022-08-20T12:12:24;2.90;;;1.83;;
32814;SDS011;19165;48.182;16.374;2022-08-20T12:14:50;2.80;;;2.13;;
32814;SDS011;19165;48.182;16.374;2022-08-20T12:17:18;2.20;;;2.00;;
32814;SDS011;19165;48.182;16.374;2022-08-20T12:19:48;2.88;;;1.95;;
32814;SDS011;19165;48.182;16.374;2022-08-20T12:22:18;2.10;;;1.90;;
32814;SDS011;19165;48.182;16.374;2022-08-20T12:24:44;2.63;;;1.95;;
32814;SDS011;19165;48.182;16.374;2022-08-20T12:27:11;2.28;;;2.00;;
32814;SDS011;19165;48.182;16.374;2022-08-20T12:29:41;2.38;;;2.15;;
32814;SDS011;19165;48.182;16.374;2022-08-20T12:32:08;3.28;;;2.13;;
32814;SDS011;19165;48.182;16.374;2022-08-20T12:34:34;2.10;;;1.90;;
32814;SDS011;19165;48.182;16.374;2022-08-20T12:37:02;3.13;;;2.15;;
32814;SDS011;19165;48.182;16.374;2022-08-20T12:39:29;3.38;;;2.05;;
32814;SDS011;19165;48.182;16.374;2022-08-20T12:41:59;2.92;;;2.40;;
32814;SDS011;19165;48.182;16.374;2022-08-20T12:44:27;4.72;;;2.00;;
32814;SDS011;19165;48.182;16.374;2022-08-20T12:47:04;2.03;;;1.85;;
32814;SDS011;19165;48.182;16.374;2022-08-20T12:49:32;1.90;;;1.80;;
32814;SDS011;19165;48.182;16.374;2022-08-20T12:51:58;4.28;;;2.13;;
32814;SDS011;19165;48.182;16.374;2022-08-20T12:54:24;2.55;;;2.13;;
32814;SDS011;19165;48.182;16.374;2022-08-20T12:56:50;3.60;;;2.20;;
32814;SDS011;19165;48.182;16.374;2022-08-20T12:59:16;3.13;;;2.30;;
32814;SDS011;19165;48.182;16.374;2022-08-20T13:01:42;2.40;;;2.20;;
32814;SDS011;19165;48.182;16.374;2022-08-20T13:04:09;2.28;;;2.08;;
32814;SDS011;19165;48.182;16.374;2022-08-20T13:06:35;3.58;;;2.03;;
32814;SDS011;19165;48.182;16.374;2022-08-20T13:09:01;2.33;;;2.00;;
32814;SDS011;19165;48.182;16.374;2022-08-20T13:11:27;2.95;;;2.10;;
32814;SDS011;19165;48.182;16.374;2022-08-20T13:13:53;2.45;;;2.20;;
32814;SDS011;19165;48.182;16.374;2022-08-20T13:16:19;2.28;;;2.05;;
32814;SDS011;19165;48.182;16.374;2022-08-20T13:18:45;2.60;;;1.80;;
32814;SDS011;19165;48.182;16.374;2022-08-20T13:21:12;3.78;;;2.00;;
32814;SDS011;19165;48.182;16.374;2022-08-20T13:23:38;2.47;;;2.20;;
32814;SDS011;19165;48.182;16.374;2022-08-20T13:26:04;2.20;;;2.00;;
32814;SDS011;19165;48.182;16.374;2022-08-20T13:28:30;1.90;;;1.80;;
32814;SDS011;19165;48.182;16.374;2022-08-20T13:30:56;1.98;;;1.83;;
32814;SDS011;19165;48.182;16.374;2022-08-20T13:33:22;1.92;;;1.70;;
32814;SDS011;19165;48.182;16.374;2022-08-20T13:35:50;2.10;;;1.90;;
32814;SDS011;19165;48.182;16.374;2022-08-20T13:38:18;2.65;;;1.98;;
32814;SDS011;19165;48.182;16.374;2022-08-20T13:40:44;1.90;;;1.80;;
32814;SDS011;19165;48.182;16.374;2022-08-20T13:43:10;2.60;;;2.40;;
32814;SDS011;19165;48.182;16.374;2022-08-20T13:45:36;2.28;;;1.98;;
32814;SDS011;19165;48.182;16.374;2022-08-20T13:48:03;2.00;;;1.90;;
32814;SDS011;19165;48.182;16.374;2022-08-20T13:50:30;2.10;;;1.90;;
32814;SDS011;19165;48.182;16.374;2022-08-20T13:52:56;1.95;;;1.77;;
32814;SDS011;19165;48.182;16.374;2022-08-20T13:55:24;2.50;;;1.80;;
32814;SDS011;19165;48.182;16.374;2022-08-20T13:57:52;2.10;;;1.90;;
32814;SDS011;19165;48.182;16.374;2022-08-20T14:00:20;2.05;;;1.60;;
32814;SDS011;19165;48.182;16.374;2022-08-20T14:02:48;3.17;;;2.20;;
32814;SDS011;19165;48.182;16.374;2022-08-20T14:05:14;1.85;;;1.70;;
32814;SDS011;19165;48.182;16.374;2022-08-20T14:07:41;2.20;;;2.10;;
32814;SDS011;19165;48.182;16.374;2022-08-20T14:10:09;2.10;;;2.00;;
32814;SDS011;19165;48.182;16.374;2022-08-20T14:12:39;3.70;;;2.70;;
32814;SDS011;19165;48.182;16.374;2022-08-20T14:15:06;2.55;;;2.35;;
32814;SDS011;19165;48.182;16.374;2022-08-20T14:17:34;3.08;;;2.72;;
32814;SDS011;19165;48.182;16.374;2022-08-20T14:20:03;2.53;;;2.33;;
32814;SDS011;19165;48.182;16.374;2022-08-20T14:22:32;3.60;;;2.20;;
32814;SDS011;19165;48.182;16.374;2022-08-20T14:24:58;3.40;;;2.35;;
32814;SDS011;19165;48.182;16.374;2022-08-20T14:27:27;2.45;;;2.25;;
32814;SDS011;19165;48.182;16.374;2022-08-20T14:29:56;2.60;;;2.20;;
32814;SDS011;19165;48.182;16.374;2022-08-20T14:32:22;7.13;;;5.55;;
32814;SDS011;19165;48.182;16.374;2022-08-20T14:34:49;3.58;;;3.15;;